createdAt,value
2019-05-21T00:00:42.155Z,90.78
2019-05-21T00:03:05.853Z,91.43
2019-05-21T00:05:29.432Z,91.83
2019-05-21T00:07:53.147Z,91.56
2019-05-21T00:10:16.763Z,91.29
2019-05-21T00:12:40.278Z,91.31
2019-05-21T00:15:04.188Z,90.49
2019-05-21T00:17:27.764Z,91.14
2019-05-21T00:19:51.352Z,91.11
2019-05-21T00:22:14.898Z,90.58
2019-05-21T00:24:38.829Z,90.11
2019-05-21T00:27:02.452Z,90.02
2019-05-21T00:30:02.302Z,90.33
2019-05-21T00:33:02.214Z,89.73
2019-05-21T00:36:02.369Z,90.83
2019-05-21T00:39:02.554Z,90.55
2019-05-21T00:42:05.502Z,90.89
2019-05-21T00:44:31.139Z,91.71
2019-05-21T00:46:54.724Z,89.74
2019-05-21T00:49:18.392Z,89.65
2019-05-21T00:51:41.926Z,90.75
2019-05-21T00:54:05.514Z,89.45
2019-05-21T00:56:29.148Z,90.15
2019-05-21T00:58:52.768Z,90.37
2019-05-21T01:01:16.462Z,90.30
2019-05-21T01:03:43.143Z,90.17
2019-05-21T01:06:05.376Z,90.26
2019-05-21T01:08:29.027Z,88.86
2019-05-21T01:10:52.735Z,89.81
2019-05-21T01:13:16.379Z,89.74
2019-05-21T01:15:40.057Z,89.86
2019-05-21T01:18:03.711Z,89.54
2019-05-21T01:20:27.292Z,91.14
2019-05-21T01:22:50.817Z,89.42
2019-05-21T01:25:14.414Z,89.50
2019-05-21T01:27:37.988Z,89.07
2019-05-21T01:30:02.205Z,89.17
2019-05-21T01:32:25.866Z,89.32
2019-05-21T01:34:49.396Z,89.29
2019-05-21T01:37:12.930Z,89.94
2019-05-21T01:39:36.526Z,89.27
2019-05-21T01:42:00.085Z,90.34
2019-05-21T01:44:23.633Z,91.67
2019-05-21T01:46:47.248Z,90.35
2019-05-21T01:49:10.882Z,89.98
2019-05-21T01:51:34.445Z,89.78
2019-05-21T01:53:57.997Z,89.39
2019-05-21T01:56:21.607Z,90.91
2019-05-21T01:58:46.171Z,89.84
2019-05-21T02:01:09.746Z,90.45
2019-05-21T02:03:33.304Z,89.96
2019-05-21T02:05:57.869Z,90.34
2019-05-21T02:08:21.473Z,90.60
2019-05-21T02:10:45.215Z,90.55
2019-05-21T02:13:08.787Z,91.27
2019-05-21T02:15:32.373Z,91.27
2019-05-21T02:17:56.026Z,91.18
2019-05-21T02:20:19.645Z,91.24
2019-05-21T02:22:43.260Z,90.90
2019-05-21T02:25:08.528Z,91.32
2019-05-21T02:27:32.139Z,91.56
2019-05-21T02:29:55.762Z,91.36
2019-05-21T02:32:19.393Z,91.41
2019-05-21T02:34:42.906Z,91.13
2019-05-21T02:37:06.702Z,91.88
2019-05-21T02:39:30.439Z,91.49
2019-05-21T02:41:54.036Z,92.09
2019-05-21T02:44:17.566Z,92.32
2019-05-21T02:46:41.167Z,92.41
2019-05-21T02:49:04.826Z,92.22
2019-05-21T02:51:28.390Z,92.35
2019-05-21T02:53:51.935Z,92.45
2019-05-21T02:56:15.437Z,92.51
2019-05-21T02:58:38.996Z,92.22
2019-05-21T03:01:20.719Z,91.82
2019-05-21T03:03:44.475Z,91.43
2019-05-21T03:06:13.865Z,92.13
2019-05-21T03:08:33.434Z,92.11
2019-05-21T03:10:56.974Z,91.95
2019-05-21T03:13:20.545Z,92.53
2019-05-21T03:15:44.165Z,92.69
2019-05-21T03:18:07.787Z,92.56
2019-05-21T03:20:31.327Z,92.42
2019-05-21T03:22:54.974Z,92.59
2019-05-21T03:25:18.616Z,92.67
2019-05-21T03:27:42.314Z,92.68
2019-05-21T03:30:09.305Z,92.82
2019-05-21T03:32:32.870Z,92.76
2019-05-21T03:34:56.414Z,92.72
2019-05-21T03:37:19.989Z,92.77
2019-05-21T03:39:43.524Z,92.61
2019-05-21T03:42:07.106Z,92.60
2019-05-21T03:44:30.709Z,92.43
2019-05-21T03:46:54.236Z,92.50
2019-05-21T03:49:17.935Z,92.51
2019-05-21T03:51:41.543Z,92.66
2019-05-21T03:54:05.216Z,92.70
2019-05-21T03:56:28.863Z,92.58
2019-05-21T03:58:52.474Z,92.57
2019-05-21T04:01:16.028Z,92.70
2019-05-21T04:03:40.857Z,92.87
2019-05-21T04:06:04.485Z,92.58
2019-05-21T04:08:28.082Z,92.19
2019-05-21T04:10:51.619Z,92.04
2019-05-21T04:13:15.262Z,91.81
2019-05-21T04:15:45.186Z,91.49
2019-05-21T04:18:16.353Z,91.54
2019-05-21T04:20:39.908Z,91.51
2019-05-21T04:23:03.482Z,91.61
2019-05-21T04:25:27.208Z,91.19
2019-05-21T04:27:50.811Z,90.90
2019-05-21T04:30:14.475Z,91.07
2019-05-21T04:32:38.062Z,91.04
2019-05-21T04:35:01.676Z,91.20
2019-05-21T04:37:25.290Z,91.40
2019-05-21T04:39:48.879Z,91.87
2019-05-21T04:42:12.403Z,91.85
2019-05-21T04:44:36.043Z,91.97
2019-05-21T04:46:59.543Z,92.24
2019-05-21T04:49:23.186Z,92.12
2019-05-21T04:51:46.779Z,92.41
2019-05-21T04:54:10.361Z,92.43
2019-05-21T04:56:33.907Z,92.25
2019-05-21T04:58:57.556Z,92.19
2019-05-21T05:01:21.209Z,92.78
2019-05-21T05:03:44.839Z,92.62
2019-05-21T05:06:08.381Z,92.06
2019-05-21T05:08:31.973Z,91.75
2019-05-21T05:10:55.532Z,92.28
2019-05-21T05:13:19.059Z,92.82
2019-05-21T05:15:42.665Z,92.80
2019-05-21T05:18:06.204Z,92.07
2019-05-21T05:20:29.793Z,92.06
2019-05-21T05:22:53.322Z,92.42
2019-05-21T05:25:17.222Z,91.30
2019-05-21T05:27:40.771Z,91.72
2019-05-21T05:30:09.591Z,91.32
2019-05-21T05:32:33.119Z,91.99
2019-05-21T05:34:56.713Z,90.09
2019-05-21T05:37:20.258Z,90.93
2019-05-21T05:39:43.842Z,90.34
2019-05-21T05:42:07.386Z,90.31
2019-05-21T05:44:30.961Z,88.26
2019-05-21T05:46:54.482Z,88.77
2019-05-21T05:49:22.345Z,88.94
2019-05-21T05:51:45.976Z,86.72
2019-05-21T05:54:09.509Z,85.15
2019-05-21T05:56:34.138Z,87.02
2019-05-21T05:58:58.009Z,85.44
2019-05-21T06:01:21.569Z,85.14
2019-05-21T06:03:45.094Z,84.21
2019-05-21T06:06:08.697Z,85.74
2019-05-21T06:08:32.217Z,85.87
2019-05-21T06:10:55.850Z,86.28
2019-05-21T06:13:19.355Z,85.63
2019-05-21T06:15:43.014Z,86.57
2019-05-21T06:18:06.595Z,86.67
2019-05-21T06:20:30.211Z,86.66
2019-05-21T06:22:53.716Z,86.79
2019-05-21T06:25:18.530Z,86.20
2019-05-21T06:27:42.199Z,86.93
2019-05-21T06:30:09.582Z,87.05
2019-05-21T06:32:33.122Z,86.59
2019-05-21T06:34:56.665Z,85.58
2019-05-21T06:37:20.263Z,86.09
2019-05-21T06:39:43.795Z,87.49
2019-05-21T06:42:07.385Z,86.45
2019-05-21T06:44:31.004Z,87.27
2019-05-21T06:46:54.540Z,85.89
2019-05-21T06:49:18.116Z,86.35
2019-05-21T06:51:41.722Z,85.65
2019-05-21T06:54:05.803Z,84.02
2019-05-21T06:56:29.359Z,83.26
2019-05-21T06:58:53.027Z,83.14
2019-05-21T07:01:16.651Z,81.66
2019-05-21T07:03:40.156Z,80.83
2019-05-21T07:06:03.764Z,81.40
2019-05-21T07:08:34.509Z,80.74
2019-05-21T07:10:52.600Z,80.66
2019-05-21T07:13:16.154Z,80.65
2019-05-21T07:15:39.741Z,81.32
2019-05-21T07:18:03.289Z,81.08
2019-05-21T07:20:26.888Z,80.54
2019-05-21T07:22:50.580Z,81.38
2019-05-21T07:25:14.834Z,80.67
2019-05-21T07:27:39.044Z,81.35
2019-05-21T07:30:02.566Z,80.80
2019-05-21T07:32:26.274Z,80.62
2019-05-21T07:34:49.864Z,80.88
2019-05-21T07:37:13.439Z,81.70
2019-05-21T07:39:36.942Z,79.48
2019-05-21T07:42:00.525Z,79.81
2019-05-21T07:44:24.082Z,79.85
2019-05-21T07:46:47.924Z,78.71
2019-05-21T07:49:11.445Z,78.51
2019-05-21T07:51:34.969Z,76.71
2019-05-21T07:53:58.549Z,75.19
2019-05-21T07:56:22.099Z,76.90
2019-05-21T07:58:45.678Z,76.83
2019-05-21T08:01:09.235Z,78.12
2019-05-21T08:03:32.845Z,79.25
2019-05-21T08:05:56.345Z,79.68
2019-05-21T08:08:19.946Z,79.41
2019-05-21T08:10:43.478Z,78.33
2019-05-21T08:13:07.067Z,79.18
2019-05-21T08:15:30.605Z,79.91
2019-05-21T08:17:54.279Z,80.34
2019-05-21T08:20:18.649Z,82.72
2019-05-21T08:22:42.215Z,84.22
2019-05-21T08:25:09.009Z,83.10
2019-05-21T08:27:32.582Z,81.46
2019-05-21T08:29:56.106Z,79.94
2019-05-21T08:32:19.677Z,78.48
2019-05-21T08:34:43.250Z,77.83
2019-05-21T08:37:06.811Z,77.83
2019-05-21T08:39:31.397Z,77.28
2019-05-21T08:41:54.957Z,76.47
2019-05-21T08:44:18.613Z,73.71
2019-05-21T08:46:42.187Z,74.82
2019-05-21T08:49:05.799Z,74.29
2019-05-21T08:51:29.401Z,72.54
2019-05-21T08:53:52.948Z,73.48
2019-05-21T08:56:16.449Z,71.67
2019-05-21T08:58:39.987Z,71.57
2019-05-21T09:01:03.525Z,73.60
2019-05-21T09:03:28.156Z,73.37
2019-05-21T09:05:51.671Z,73.97
2019-05-21T09:08:15.265Z,74.09
2019-05-21T09:10:41.964Z,74.02
2019-05-21T09:13:05.526Z,73.83
2019-05-21T09:15:29.060Z,73.85
2019-05-21T09:17:52.571Z,73.55
2019-05-21T09:20:17.356Z,74.11
2019-05-21T09:22:41.028Z,71.83
2019-05-21T09:25:05.683Z,70.57
2019-05-21T09:27:29.336Z,70.31
2019-05-21T09:29:52.890Z,70.69
2019-05-21T09:32:16.566Z,70.92
2019-05-21T09:34:48.618Z,70.01
2019-05-21T09:37:18.426Z,70.64
2019-05-21T09:39:30.731Z,68.85
2019-05-21T09:41:54.268Z,69.01
2019-05-21T09:44:17.816Z,69.66
2019-05-21T09:46:41.410Z,71.40
2019-05-21T09:49:05.182Z,71.16
2019-05-21T09:51:28.836Z,73.22
2019-05-21T09:53:52.388Z,70.93
2019-05-21T09:56:35.913Z,69.18
2019-05-21T09:59:01.139Z,68.77
2019-05-21T10:01:26.314Z,68.64
2019-05-21T10:03:51.731Z,70.26
2019-05-21T10:06:15.386Z,68.78
2019-05-21T10:08:39.148Z,68.29
2019-05-21T10:11:03.109Z,70.20
2019-05-21T10:13:26.718Z,72.02
2019-05-21T10:15:50.387Z,70.96
2019-05-21T10:18:14.010Z,71.84
2019-05-21T10:20:37.766Z,71.54
2019-05-21T10:23:01.759Z,74.09
2019-05-21T10:25:25.821Z,74.83
2019-05-21T10:27:49.989Z,73.34
2019-05-21T10:30:14.258Z,72.87
2019-05-21T10:32:37.949Z,71.94
2019-05-21T10:35:02.143Z,68.44
2019-05-21T10:37:25.910Z,67.27
2019-05-21T10:39:50.650Z,65.69
2019-05-21T10:42:14.834Z,65.04
2019-05-21T10:44:38.468Z,62.56
2019-05-21T10:47:02.032Z,64.88
2019-05-21T10:49:25.775Z,65.29
2019-05-21T10:51:49.566Z,64.96
2019-05-21T10:54:13.224Z,63.32
2019-05-21T10:56:47.315Z,64.47
2019-05-21T10:59:02.351Z,66.36
2019-05-21T11:01:40.054Z,63.96
2019-05-21T11:04:08.069Z,63.97
2019-05-21T11:06:31.726Z,63.10
2019-05-21T11:08:55.462Z,63.25
2019-05-21T11:11:21.218Z,63.97
2019-05-21T11:13:44.511Z,62.92
2019-05-21T11:16:08.155Z,62.09
2019-05-21T11:18:31.727Z,63.15
2019-05-21T11:20:55.329Z,59.29
2019-05-21T11:23:19.871Z,57.60
2019-05-21T11:25:43.474Z,57.66
2019-05-21T11:28:07.242Z,59.28
2019-05-21T11:30:30.970Z,56.68
2019-05-21T11:32:54.560Z,53.19
2019-05-21T11:35:18.786Z,52.94
2019-05-21T11:37:42.437Z,54.61
2019-05-21T11:40:08.671Z,56.02
2019-05-21T11:42:32.411Z,56.38
2019-05-21T11:44:56.049Z,54.62
2019-05-21T11:47:19.718Z,55.43
2019-05-21T11:49:43.303Z,55.43
2019-05-21T11:52:06.952Z,52.04
2019-05-21T11:54:30.578Z,51.42
2019-05-21T11:56:54.301Z,51.78
2019-05-21T11:59:18.003Z,53.36
2019-05-21T12:01:41.679Z,56.13
2019-05-21T12:04:05.393Z,56.85
2019-05-21T12:06:29.094Z,58.14
2019-05-21T12:08:56.774Z,57.24
2019-05-21T12:11:18.305Z,58.92
2019-05-21T12:13:41.946Z,58.65
2019-05-21T12:16:05.699Z,60.09
2019-05-21T12:18:29.291Z,58.50
2019-05-21T12:20:53.141Z,59.95
2019-05-21T12:23:16.763Z,58.96
2019-05-21T12:25:40.393Z,59.73
2019-05-21T12:28:04.045Z,59.31
2019-05-21T12:30:27.897Z,59.97
2019-05-21T12:32:51.549Z,60.58
2019-05-21T12:35:15.291Z,61.19
2019-05-21T12:37:38.940Z,61.80
2019-05-21T12:40:02.728Z,64.95
2019-05-21T12:42:26.402Z,63.17
2019-05-21T12:44:49.935Z,60.15
2019-05-21T12:47:13.583Z,60.07
2019-05-21T12:49:37.095Z,57.10
2019-05-21T12:52:00.665Z,55.93
2019-05-21T12:54:24.270Z,57.10
2019-05-21T12:56:47.818Z,54.37
2019-05-21T12:59:11.421Z,53.95
2019-05-21T13:01:35.001Z,54.08
2019-05-21T13:03:58.653Z,53.29
2019-05-21T13:06:22.328Z,54.06
2019-05-21T13:08:46.096Z,55.66
2019-05-21T13:11:09.737Z,57.51
2019-05-21T13:13:33.355Z,57.39
2019-05-21T13:15:56.972Z,57.47
2019-05-21T13:18:20.590Z,56.86
2019-05-21T13:20:44.142Z,56.17
2019-05-21T13:23:07.698Z,57.17
2019-05-21T13:25:31.267Z,56.56
2019-05-21T13:27:57.623Z,55.85
2019-05-21T13:30:20.678Z,58.15
2019-05-21T13:32:44.327Z,57.60
2019-05-21T13:35:08.615Z,57.31
2019-05-21T13:37:32.293Z,59.39
2019-05-21T13:39:55.832Z,56.86
2019-05-21T13:42:19.460Z,54.61
2019-05-21T13:44:43.043Z,54.56
2019-05-21T13:47:07.015Z,52.96
2019-05-21T13:49:30.819Z,49.58
2019-05-21T13:51:54.521Z,51.77
2019-05-21T13:54:18.065Z,51.58
2019-05-21T13:56:41.610Z,55.36
2019-05-21T13:59:05.305Z,55.25
2019-05-21T14:01:39.887Z,57.00
2019-05-21T14:03:54.439Z,56.36
2019-05-21T14:06:20.388Z,58.69
2019-05-21T14:08:43.416Z,57.10
2019-05-21T14:11:07.034Z,56.86
2019-05-21T14:13:30.674Z,57.18
2019-05-21T14:15:54.255Z,56.48
2019-05-21T14:18:17.980Z,56.82
2019-05-21T14:20:41.545Z,55.36
2019-05-21T14:23:05.491Z,54.75
2019-05-21T14:25:29.088Z,54.21
2019-05-21T14:27:52.748Z,57.36
2019-05-21T14:30:21.818Z,54.72
2019-05-21T14:32:45.687Z,57.88
2019-05-21T14:35:09.829Z,58.67
2019-05-21T14:37:33.825Z,59.57
2019-05-21T14:39:58.396Z,60.95
2019-05-21T14:42:22.022Z,62.67
2019-05-21T14:44:45.579Z,65.36
2019-05-21T14:47:09.104Z,65.52
2019-05-21T14:49:32.699Z,71.49
2019-05-21T14:51:56.278Z,67.55
2019-05-21T14:54:26.730Z,68.43
2019-05-21T14:56:47.693Z,65.83
2019-05-21T14:59:10.411Z,69.56
2019-05-21T15:01:33.956Z,69.93
2019-05-21T15:03:57.673Z,66.86
2019-05-21T15:06:21.404Z,67.50
2019-05-21T15:08:45.012Z,66.21
2019-05-21T15:11:08.605Z,65.05
2019-05-21T15:13:37.026Z,67.12
2019-05-21T15:16:00.907Z,63.86
2019-05-21T15:18:24.566Z,62.54
2019-05-21T15:20:55.632Z,63.24
2019-05-21T15:23:19.245Z,64.03
2019-05-21T15:25:43.028Z,62.98
2019-05-21T15:28:06.693Z,62.86
2019-05-21T15:30:30.265Z,63.63
2019-05-21T15:32:53.789Z,63.34
2019-05-21T15:35:17.323Z,63.63
2019-05-21T15:37:44.808Z,64.72
2019-05-21T15:40:07.082Z,66.29
2019-05-21T15:42:30.631Z,70.01
2019-05-21T15:44:54.195Z,71.10
2019-05-21T15:47:17.810Z,71.13
2019-05-21T15:49:41.692Z,72.56
2019-05-21T15:52:05.414Z,72.73
2019-05-21T15:54:28.944Z,72.28
2019-05-21T15:56:52.473Z,74.02
2019-05-21T15:59:16.022Z,73.42
2019-05-21T16:01:40.843Z,73.24
2019-05-21T16:04:04.627Z,72.82
2019-05-21T16:06:28.189Z,73.86
2019-05-21T16:08:51.893Z,73.21
2019-05-21T16:11:28.131Z,72.00
2019-05-21T16:13:40.746Z,72.23
2019-05-21T16:16:04.480Z,72.68
2019-05-21T16:18:28.027Z,73.05
2019-05-21T16:20:51.656Z,72.73
2019-05-21T16:23:15.206Z,74.17
2019-05-21T16:25:38.803Z,73.18
2019-05-21T16:28:02.342Z,73.56
2019-05-21T16:30:25.934Z,76.23
2019-05-21T16:32:49.475Z,73.53
2019-05-21T16:35:13.678Z,73.05
2019-05-21T16:37:37.376Z,74.96
2019-05-21T16:40:01.678Z,72.43
2019-05-21T16:42:25.334Z,75.16
2019-05-21T16:44:49.120Z,75.07
2019-05-21T16:47:12.644Z,74.16
2019-05-21T16:49:36.272Z,75.26
2019-05-21T16:51:59.902Z,74.70
2019-05-21T16:54:23.742Z,75.35
2019-05-21T16:56:47.593Z,74.61
2019-05-21T16:59:11.177Z,75.42
2019-05-21T17:01:34.863Z,75.44
2019-05-21T17:04:00.158Z,76.68
2019-05-21T17:06:23.934Z,77.70
2019-05-21T17:08:48.499Z,76.03
2019-05-21T17:11:12.095Z,76.61
2019-05-21T17:13:35.756Z,75.63
2019-05-21T17:15:59.691Z,75.05
2019-05-21T17:18:23.849Z,76.66
2019-05-21T17:20:47.748Z,76.63
2019-05-21T17:23:11.508Z,74.31
2019-05-21T17:25:35.229Z,75.36
2019-05-21T17:27:58.930Z,76.13
2019-05-21T17:30:22.713Z,76.54
2019-05-21T17:32:46.370Z,76.00
2019-05-21T17:35:10.402Z,75.41
2019-05-21T17:37:34.025Z,77.50
2019-05-21T17:39:57.591Z,77.23
2019-05-21T17:42:21.719Z,76.51
2019-05-21T17:44:45.410Z,75.49
2019-05-21T17:47:09.111Z,76.32
2019-05-21T17:49:33.058Z,75.77
2019-05-21T17:51:56.955Z,77.54
2019-05-21T17:54:20.935Z,76.12
2019-05-21T17:56:44.923Z,75.45
2019-05-21T17:59:08.746Z,76.61
2019-05-21T18:01:33.071Z,76.46
2019-05-21T18:03:57.012Z,77.31
2019-05-21T18:06:20.913Z,77.84
2019-05-21T18:08:44.771Z,77.71
2019-05-21T18:11:09.067Z,77.55
2019-05-21T18:13:33.331Z,76.41
2019-05-21T18:15:57.573Z,78.08
2019-05-21T18:18:21.115Z,78.49
2019-05-21T18:20:45.087Z,77.86
2019-05-21T18:23:09.736Z,77.80
2019-05-21T18:25:33.275Z,79.17
2019-05-21T18:27:57.075Z,79.92
2019-05-21T18:30:20.921Z,79.95
2019-05-21T18:32:44.649Z,78.47
2019-05-21T18:35:10.293Z,77.18
2019-05-21T18:37:34.078Z,77.51
2019-05-21T18:39:57.768Z,78.60
2019-05-21T18:42:22.654Z,77.98
2019-05-21T18:44:47.372Z,78.99
2019-05-21T18:47:10.975Z,78.50
2019-05-21T18:49:34.596Z,79.39
2019-05-21T18:51:58.299Z,78.91
2019-05-21T18:54:21.917Z,79.50
2019-05-21T18:56:45.602Z,78.96
2019-05-21T18:59:09.472Z,78.85
2019-05-21T19:01:33.112Z,79.41
2019-05-21T19:03:56.669Z,79.61
2019-05-21T19:06:20.596Z,79.04
2019-05-21T19:08:44.419Z,79.43
2019-05-21T19:11:08.129Z,79.11
2019-05-21T19:13:31.981Z,79.93
2019-05-21T19:15:56.027Z,79.44
2019-05-21T19:18:19.805Z,80.51
2019-05-21T19:20:43.495Z,79.61
2019-05-21T19:23:07.157Z,79.09
2019-05-21T19:25:30.678Z,78.16
2019-05-21T19:27:54.324Z,80.34
2019-05-21T19:30:18.420Z,80.53
2019-05-21T19:32:43.145Z,80.84
2019-05-21T19:35:08.561Z,80.64
2019-05-21T19:37:32.261Z,80.24
2019-05-21T19:39:55.996Z,79.86
2019-05-21T19:42:19.639Z,79.94
2019-05-21T19:44:43.432Z,79.34
2019-05-21T19:47:07.226Z,80.07
2019-05-21T19:49:30.886Z,79.10
2019-05-21T19:51:54.423Z,80.14
2019-05-21T19:54:18.002Z,80.88
2019-05-21T19:56:41.554Z,80.21
2019-05-21T19:59:05.427Z,80.12
2019-05-21T20:01:29.460Z,79.04
2019-05-21T20:03:53.823Z,77.97
2019-05-21T20:06:17.624Z,79.80
2019-05-21T20:08:42.155Z,78.74
2019-05-21T20:11:06.460Z,78.86
2019-05-21T20:13:32.928Z,78.54
2019-05-21T20:15:55.981Z,78.42
2019-05-21T20:18:19.858Z,77.68
2019-05-21T20:20:44.164Z,78.76
2019-05-21T20:23:10.190Z,79.27
2019-05-21T20:25:34.956Z,78.82
2019-05-21T20:27:59.457Z,78.93
2019-05-21T20:30:25.333Z,80.00
2019-05-21T20:32:50.662Z,78.83
2019-05-21T20:35:17.941Z,78.42
2019-05-21T20:37:43.111Z,78.24
2019-05-21T20:40:09.452Z,77.64
2019-05-21T20:42:33.248Z,78.07
2019-05-21T20:44:57.503Z,79.56
2019-05-21T20:47:21.470Z,79.99
2019-05-21T20:49:46.978Z,79.59
2019-05-21T20:52:18.712Z,78.80
2019-05-21T20:54:38.752Z,79.95
2019-05-21T20:57:02.466Z,80.37
2019-05-21T20:59:26.386Z,80.54
2019-05-21T21:01:50.019Z,81.74
2019-05-21T21:04:13.672Z,81.56
2019-05-21T21:06:38.199Z,81.58
2019-05-21T21:09:02.509Z,81.89
2019-05-21T21:11:26.612Z,82.03
2019-05-21T21:13:50.443Z,81.07
2019-05-21T21:16:14.280Z,80.80
2019-05-21T21:18:38.130Z,80.55
2019-05-21T21:21:01.741Z,79.94
2019-05-21T21:23:27.037Z,80.04
2019-05-21T21:25:50.715Z,79.63
2019-05-21T21:28:14.513Z,78.67
2019-05-21T21:30:38.422Z,78.80
2019-05-21T21:33:03.186Z,78.80
2019-05-21T21:35:26.975Z,79.76
2019-05-21T21:37:50.574Z,80.16
2019-05-21T21:40:17.539Z,78.90
2019-05-21T21:42:44.467Z,78.69
2019-05-21T21:45:08.352Z,78.62
2019-05-21T21:47:31.947Z,79.07
2019-05-21T21:49:56.159Z,79.42
2019-05-21T21:52:20.056Z,79.59
2019-05-21T21:54:43.910Z,80.04
2019-05-21T21:57:07.681Z,80.19
2019-05-21T21:59:31.380Z,80.60
2019-05-21T22:01:58.131Z,79.73
2019-05-21T22:04:25.994Z,79.21
2019-05-21T22:06:51.882Z,78.10
2019-05-21T22:09:17.549Z,77.81
2019-05-21T22:11:41.941Z,77.29
2019-05-21T22:14:06.597Z,76.32
2019-05-21T22:16:31.035Z,77.17
2019-05-21T22:18:54.855Z,78.17
2019-05-21T22:21:19.011Z,77.98
2019-05-21T22:23:42.907Z,75.93
2019-05-21T22:26:06.672Z,76.66
2019-05-21T22:28:30.679Z,76.95
2019-05-21T22:30:54.710Z,78.14
2019-05-21T22:33:19.120Z,77.46
2019-05-21T22:35:43.985Z,77.92
2019-05-21T22:38:07.758Z,77.32
2019-05-21T22:40:31.600Z,77.26
2019-05-21T22:42:55.547Z,77.59
2019-05-21T22:45:19.388Z,77.98
2019-05-21T22:47:45.042Z,78.00
2019-05-21T22:50:09.065Z,78.39
2019-05-21T22:52:32.981Z,79.22
2019-05-21T22:54:56.675Z,79.40
2019-05-21T22:57:20.382Z,79.20
2019-05-21T22:59:43.992Z,78.03
2019-05-21T23:02:09.181Z,77.52
2019-05-21T23:04:32.790Z,78.18
2019-05-21T23:06:56.881Z,78.60
2019-05-21T23:09:20.496Z,79.32
2019-05-21T23:11:44.103Z,79.76
2019-05-21T23:14:07.780Z,79.77
2019-05-21T23:16:32.726Z,79.57
2019-05-21T23:18:56.992Z,80.26
2019-05-21T23:21:20.679Z,80.89
2019-05-21T23:23:46.396Z,79.23
2019-05-21T23:26:10.196Z,78.09
2019-05-21T23:28:34.487Z,79.46
2019-05-21T23:30:58.954Z,80.43
2019-05-21T23:33:25.674Z,82.04
2019-05-21T23:35:50.488Z,80.40
2019-05-21T23:38:14.559Z,81.19
2019-05-21T23:40:38.536Z,82.06
2019-05-21T23:43:04.045Z,82.44
2019-05-21T23:45:27.683Z,82.72
2019-05-21T23:47:51.427Z,83.45
2019-05-21T23:50:16.457Z,82.42
2019-05-21T23:52:40.386Z,82.99
2019-05-21T23:55:05.458Z,82.94
2019-05-21T23:57:30.633Z,83.47
2019-05-21T23:59:54.431Z,82.83
